• Join FlightAware (Why Join?)
  • Login
  • US Flag 
02:27PM EDT


 

Airport Tracker/Info


-or-


 

Live Flight TrackerFlight Track Log ✈ ASQ5958 ✈ 12-Apr-2013 ✈ KPIT - KDEN

Flight Track Log - Related Links

Times and Time Zones

All times are in EDT time to prevent confusion due to time zone crossing. See the ASQ5958 flight status page for this flight to view local times or setup timezone preferences in your user account.

Time Position Orientation Groundspeed Altitude Reporting Facility
EDT Latitude Longitude Course Direction KTS MPH feet Rate Location/Type
07:47PM 40.5033 -80.2772 269° West 166 191 1,800  Level FAA TRACON SMA TRACON (SMA)
07:48PM 40.5031 -80.2947 269° West 159 183 2,500 1,800 Climbing FAA TRACON SMA TRACON (SMA)
07:48PM 40.5031 -80.3136 270° West 172 198 3,000 2,400 Climbing FAA TRACON SMA TRACON (SMA)
07:48PM 40.5097 -80.3400 288° West 198 228 4,100 2,700 Climbing FAA TRACON SMA TRACON (SMA)
07:49PM 40.5203 -80.3575 308° West 204 235 4,800 2,040 Climbing FAA TRACON SMA TRACON (SMA)
07:49PM 40.5364 -80.3803 313° West 225 259 5,500 2,100 Climbing FAA TRACON SMA TRACON (SMA)
07:49PM 40.5494 -80.4000 311° West 238 274 6,200 2,100 Climbing FAA TRACON SMA TRACON (SMA)
07:50PM 40.5631 -80.4208 311° West 242 278 6,900 2,520 Climbing FAA TRACON SMA TRACON (SMA)
07:50PM 40.5800 -80.4472 310° West 245 282 7,900 2,520 Climbing FAA TRACON SMA TRACON (SMA)
07:50PM 40.5939 -80.4692 310° West 250 288 8,600 2,040 Climbing FAA TRACON SMA TRACON (SMA)
07:51PM 40.6081 -80.4911 310° West 253 291 9,300 2,100 Climbing FAA TRACON SMA TRACON (SMA)
07:51PM 40.6225 -80.5133 311° West 257 296 10,000 1,980 Climbing FAA TRACON SMA TRACON (SMA)
07:51PM 40.6356 -80.5461 298° West 268 308 10,600 1,500 Climbing FAA TRACON SMA TRACON (SMA)
07:52PM 40.6383 -80.5756 277° West 268 308 11,000 1,200 Climbing FAA TRACON SMA TRACON (SMA)
07:52PM 40.6411 -80.6061 277° West 279 321 11,400 840 Climbing FAA TRACON SMA TRACON (SMA)
07:52PM 40.6456 -80.6472 278° West 301 346 11,600 600 Climbing FAA TRACON SMA TRACON (SMA)
07:53PM 40.6497 -80.6817 279° West 315 362 11,800 900 Climbing FAA TRACON SMA TRACON (SMA)
07:53PM 40.6542 -80.7178 279° West 321 369 12,200 1,500 Climbing FAA TRACON SMA TRACON (SMA)
07:53PM 40.6594 -80.7633 279° West 327 376 12,800 1,620 Climbing FAA TRACON SMA TRACON (SMA)
07:54PM 40.6664 -80.7958 286° West 328 377 13,300 1,800 Climbing FAA TRACON SMA TRACON (SMA)
07:54PM 40.6692 -80.8458 274° West 330 380 14,000 1,800 Climbing FAA TRACON SMA TRACON (SMA)
07:54PM 40.6736 -80.8828 279° West 330 380 14,500 1,620 Climbing FAA TRACON SMA TRACON (SMA)
07:55PM 40.6781 -80.9197 279° West 331 381 15,100 1,800 Climbing FAA TRACON SMA TRACON (SMA)
07:55PM 40.6836 -80.9658 279° West 331 381 15,700 1,200 Climbing FAA TRACON SMA TRACON (SMA)
07:55PM 40.6847 -80.9750 279° West 330 380 15,900 1,500 Climbing FAA TRACON SMA TRACON (SMA)
07:56PM 40.6978 -81.0761 280° West 335 386 17,400 1,860 Climbing Cleveland Center
07:57PM 40.7139 -81.1967 280° West 329 379 19,200 1,740 Climbing Cleveland Center
07:58PM 40.7278 -81.3147 279° West 329 379 20,900 1,560 Climbing Cleveland Center
07:59PM 40.7436 -81.4408 279° West 329 379 22,400 1,500 Climbing Cleveland Center
08:00PM 40.7781 -81.5539 292° West 329 379 24,000 1,500 Climbing Cleveland Center
08:01PM 40.8000 -81.6667 284° West 328 377 25,500 1,500 Climbing Cleveland Center
08:02PM 40.8133 -81.7792 279° West 321 369 27,000 1,200 Climbing Cleveland Center
08:03PM 40.8225 -81.8947 276° West 316 364 28,000 1,020 Climbing Cleveland Center
08:04PM 40.8378 -82.0103 280° West 316 364 29,100 960 Climbing Cleveland Center
08:05PM 40.8469 -82.1175 276° West 316 364 30,000 900 Climbing Cleveland Center
08:06PM 40.8597 -82.2358 278° West 326 375 31,000 1,020 Climbing Cleveland Center
08:07PM 40.8706 -82.3542 277° West 326 375 32,100 1,020 Climbing Cleveland Center
08:08PM 40.8833 -82.4725 278° West 333 383 33,100 900 Climbing Cleveland Center
08:09PM 40.8936 -82.5939 276° West 333 383 34,000 420 Climbing Cleveland Center
08:10PM 40.9061 -82.7178 278° West 340 391 34,000 420 Level Cleveland Center
08:11PM 40.9181 -82.8556 277° West 345 397 34,900 900 Climbing Cleveland Center
08:12PM 40.9319 -82.9825 278° West 350 403 35,900 540 Climbing Cleveland Center
08:13PM 40.9419 -83.1067 276° West 350 403 36,000  Climbing Cleveland Center
08:14PM 40.9558 -83.2197 279° West 350 403 36,000  Level Cleveland Center
08:15PM 40.9694 -83.3581 277° West 366 421 36,000  Level Cleveland Center
08:16PM 40.9825 -83.4961 277° West 373 429 36,000  Level Cleveland Center
08:17PM 40.9933 -83.6422 276° West 390 449 36,000  Level Cleveland Center
08:18PM 41.0078 -83.7972 277° West 390 449 36,000  Level Cleveland Center
08:19PM 41.0183 -83.9436 276° West 395 455 36,000  Level Cleveland Center
08:20PM 41.0325 -84.0931 277° West 401 461 36,000  Level Cleveland Center
08:21PM 41.0425 -84.2014 277° West 406 467 36,000  Level Chicago Center
08:22PM 41.0547 -84.3511 276° West 409 471 36,000  Level Chicago Center
08:23PM 41.0664 -84.4986 276° West 404 465 36,000  Level Chicago Center
08:24PM 41.0781 -84.6469 276° West 404 465 36,000  Level Chicago Center
08:25PM 41.0900 -84.7939 276° West 403 464 36,000  Level Chicago Center
08:26PM 41.1017 -84.9403 276° West 399 459 36,000  Level Chicago Center
08:27PM 41.1133 -85.1158 275° West 397 457 36,000  Level Chicago Center
08:28PM 41.1244 -85.2611 276° West 395 455 36,000  Level Chicago Center
08:29PM 41.1344 -85.4072 275° West 396 456 36,000  Level Chicago Center
08:30PM 41.1456 -85.5503 276° West 391 450 36,000  Level Chicago Center
08:31PM 41.1558 -85.6958 275° West 394 453 36,000  Level Chicago Center
08:32PM 41.1656 -85.8392 275° West 391 450 36,000  Level Chicago Center
08:33PM 41.1756 -85.9836 275° West 391 450 36,000  Level Chicago Center
08:34PM 41.1864 -86.1561 275° West 391 450 36,000  Level Chicago Center
08:35PM 41.1956 -86.2961 275° West 382 440 36,000  Level Chicago Center
08:36PM 41.2053 -86.4378 275° West 385 443 36,000  Level Chicago Center
08:37PM 41.2139 -86.5800 275° West 387 445 36,000  Level Chicago Center
08:38PM 41.2244 -86.7342 275° West 391 450 36,000  Level Chicago Center
08:39PM 41.2322 -86.8742 274° West 383 441 36,000  Level Chicago Center
08:40PM 41.2414 -87.0153 275° West 384 442 36,000  Level Chicago Center
08:41PM 41.2494 -87.1567 274° West 386 444 36,000  Level Chicago Center
08:43PM 41.2581 -87.3247 274° West 381 438 36,000  Level Chicago Center
08:44PM 41.2664 -87.4658 275° West 383 441 36,000  Level Chicago Center
08:45PM 41.2739 -87.6058 274° West 383 441 36,000  Level Chicago Center
08:46PM 41.2817 -87.7458 274° West 382 440 36,000  Level Chicago Center
08:47PM 41.2897 -87.8861 274° West 379 436 36,000  Level Chicago Center
08:48PM 41.2964 -88.0275 274° West 378 435 36,000  Level Chicago Center
08:49PM 41.3022 -88.1708 273° West 382 440 36,000  Level Chicago Center
08:50PM 41.3092 -88.3114 274° West 379 436 36,000  Level Chicago Center
08:51PM 41.3172 -88.4797 274° West 380 437 36,000  Level Chicago Center
08:52PM 41.3239 -88.6186 274° West 378 435 36,000  Level Chicago Center
08:53PM 41.3294 -88.7589 273° West 380 437 36,000  Level Chicago Center
08:54PM 41.3356 -88.8992 273° West 382 440 36,000  Level Chicago Center
08:55PM 41.3422 -89.0397 274° West 380 437 36,000  Level Chicago Center
08:56PM 41.3475 -89.1833 273° West 387 445 36,000  Level Chicago Center
08:57PM 41.3525 -89.3317 273° West 385 443 36,000  Level Chicago Center
08:58PM 41.3578 -89.4756 273° West 388 447 36,000  Level Chicago Center
08:59PM 41.3642 -89.6192 273° West 390 449 36,000  Level Chicago Center
09:00PM 41.3711 -89.7922 273° West 392 451 36,000  Level Chicago Center
09:01PM 41.3753 -89.9367 272° West 393 452 36,000  Level Chicago Center
09:02PM 41.3800 -90.0825 273° West 394 453 36,000  Level Chicago Center
09:03PM 41.3853 -90.2269 273° West 394 453 36,000  Level Chicago Center
09:04PM 41.3908 -90.3728 273° West 395 455 36,000  Level Chicago Center
09:05PM 41.3944 -90.5200 272° West 398 458 36,000  Level Chicago Center
09:06PM 41.3978 -90.7022 271° West 417 480 36,000  Level Chicago Center
09:07PM 41.4014 -90.8497 272° West 404 465 36,000  Level Chicago Center
09:08PM 41.4133 -90.9992 276° West 407 468 36,000  Level Chicago Center
09:09PM 41.4286 -91.1478 278° West 407 468 36,000  Level Chicago Center
09:10PM 41.4431 -91.2967 277° West 407 468 36,000  Level Chicago Center
09:11PM 41.4597 -91.4628 278° West 404 465 36,000  Level Chicago Center
09:12PM 41.4731 -91.6086 277° West 398 458 36,000  Level Chicago Center
09:13PM 41.4864 -91.7525 277° West 394 453 36,000  Level Chicago Center
09:14PM 41.4994 -91.8969 277° West 394 453 36,000  Level Chicago Center
09:15PM 41.5128 -92.0439 277° West 401 461 36,000  Level Chicago Center
09:17PM 41.5256 -92.1914 277° West 403 464 36,000  Level Chicago Center
09:18PM 41.5417 -92.3706 277° West 406 467 36,000  Level Chicago Center
09:19PM 41.5542 -92.5200 276° West 407 468 36,000  Level Chicago Center
09:20PM 41.5669 -92.6706 277° West 411 473 36,000  Level Chicago Center
09:21PM 41.5775 -92.8106 276° West 410 472 36,000  Level Chicago Center
09:22PM 41.5925 -92.9881 277° West 405 466 36,000  Level Minneapolis Center
09:23PM 41.6042 -93.1344 276° West 401 461 36,000  Level Minneapolis Center
09:24PM 41.6186 -93.3150 276° West 409 471 36,000  Level Minneapolis Center
09:25PM 41.6297 -93.4653 276° West 410 472 36,000  Level Minneapolis Center
09:26PM 41.6422 -93.6122 277° West 405 466 36,000  Level Minneapolis Center
09:27PM 41.6533 -93.7625 276° West 409 471 36,000  Level Minneapolis Center
09:28PM 41.6647 -93.9139 276° West 412 474 36,000  Level Minneapolis Center
09:29PM 41.6753 -94.0656 275° West 413 475 36,000  Level Minneapolis Center
09:30PM 41.6875 -94.2344 276° West 415 478 36,000  Level Minneapolis Center
09:31PM 41.6978 -94.3892 275° West 417 480 36,000  Level Minneapolis Center
09:32PM 41.7086 -94.5433 275° West 417 480 36,000  Level Minneapolis Center
09:33PM 41.7197 -94.7297 275° West 419 482 36,000  Level Minneapolis Center
09:34PM 41.7314 -94.8836 276° West 418 481 36,000  Level Minneapolis Center
09:35PM 41.7406 -95.0342 275° West 408 470 36,000  Level Minneapolis Center
09:36PM 41.7497 -95.1853 275° West 409 471 36,000  Level Minneapolis Center
09:37PM 41.7589 -95.3367 275° West 409 471 36,000  Level Minneapolis Center
09:38PM 41.7686 -95.4869 275° West 408 470 36,000  Level Minneapolis Center
09:39PM 41.7781 -95.6672 274° West 406 467 36,000  Level Minneapolis Center
09:40PM 41.7864 -95.8125 274° West 397 457 36,000  Level Minneapolis Center
09:41PM 41.7947 -95.9586 274° West 396 456 36,000  Level Minneapolis Center
09:42PM 41.8019 -96.1058 274° West 399 459 36,000  Level Minneapolis Center
09:43PM 41.8103 -96.2522 274° West 399 459 36,000  Level Minneapolis Center
09:44PM 41.8181 -96.3983 274° West 396 456 36,000  Level Minneapolis Center
09:45PM 41.8264 -96.5742 274° West 396 456 36,000  Level Minneapolis Center
09:46PM 41.8331 -96.7194 274° West 393 452 36,000  Level Minneapolis Center
09:47PM 41.8406 -96.8664 274° West 396 456 36,000  Level Minneapolis Center
09:49PM 41.8478 -97.0136 274° West 397 457 36,000  Level Minneapolis Center
09:50PM 41.8539 -97.1631 273° West 400 460 36,000  Level Minneapolis Center
09:51PM 41.8600 -97.3139 273° West 405 466 36,000  Level Minneapolis Center
09:52PM 41.8672 -97.4653 274° West 407 468 36,000  Level Minneapolis Center
09:53PM 41.8725 -97.6161 273° West 406 467 36,000  Level Minneapolis Center
09:54PM 41.8803 -97.7967 273° West 405 466 36,000  Level Minneapolis Center
09:55PM 41.8861 -97.9481 273° West 406 467 36,000  Level Minneapolis Center
09:56PM 41.8919 -98.0994 273° West 408 470 36,000  Level Minneapolis Center
09:57PM 41.8969 -98.2433 273° West 407 468 36,000  Level Minneapolis Center
09:58PM 41.9022 -98.3953 273° West 408 470 36,000  Level Minneapolis Center
09:59PM 41.8828 -98.5767 262° West 413 475 36,000  Level Minneapolis Center
10:00PM 41.8603 -98.7236 258° West 408 470 36,000  Level Minneapolis Center
10:01PM 41.8372 -98.8736 258° West 411 473 36,000  Level Minneapolis Center
10:02PM 41.8133 -99.0217 258° West 409 471 36,000  Level Minneapolis Center
10:03PM 41.7903 -99.1683 258° West 405 466 36,000  Level Minneapolis Center
10:04PM 41.7711 -99.2872 258° West 406 467 36,000  Level Denver Center
10:05PM 41.7475 -99.4331 258° West 404 465 36,000  Level Denver Center
10:06PM 41.7236 -99.5819 258° West 408 470 36,000  Level Denver Center
10:07PM 41.6997 -99.7294 258° West 407 468 36,000  Level Denver Center
10:08PM 41.6711 -99.8961 257° West 410 472 36,000  Level Denver Center
10:09PM 41.6469 -100.0367 257° West 409 471 36,000  Level Denver Center
10:10PM 41.6189 -100.2036 257° West 412 474 36,000  Level Denver Center
10:11PM 41.5958 -100.3444 258° West 409 471 36,000  Level Denver Center
10:12PM 41.5664 -100.5122 257° West 416 479 36,000  Level Denver Center
10:13PM 41.5419 -100.6542 257° West 413 475 36,000  Level Denver Center
10:14PM 41.5108 -100.7942 254° West 413 475 36,000  Level Denver Center
10:15PM 41.4614 -100.9522 247° West 416 479 36,000  Level Denver Center
10:16PM 41.4197 -101.0894 248° West 418 481 36,000  Level Denver Center
10:17PM 41.3719 -101.2478 248° West 415 478 36,000  Level Denver Center
10:18PM 41.3308 -101.3828 248° West 415 478 36,000  Level Denver Center
10:19PM 41.2839 -101.5383 248° West 408 470 36,000  Level Denver Center
10:20PM 41.2411 -101.6708 247° West 409 471 36,000  Level Denver Center
10:21PM 41.1939 -101.8244 248° West 405 466 36,000  Level Denver Center
10:22PM 41.1533 -101.9564 248° West 404 465 36,000  Level Denver Center
10:23PM 41.0997 -102.1303 248° West 400 460 36,000  Level Denver Center
10:24PM 41.0525 -102.2817 248° West 399 459 36,000  Level Denver Center
10:25PM 41.0019 -102.4086 242° Southwest 404 465 36,000  Level Denver Center
10:26PM 40.9447 -102.5550 243° Southwest 402 463 36,000  Level Denver Center
10:28PM 40.8944 -102.6806 242° Southwest 405 466 36,000  Level Denver Center
10:29PM 40.8442 -102.8064 242° Southwest 405 466 36,000  Level Denver Center
10:30PM 40.7850 -102.9517 242° Southwest 405 466 36,000  Level Denver Center
10:31PM 40.7311 -103.0894 243° Southwest 408 470 36,000 -540 Level Denver Center
10:32PM 40.6778 -103.2203 242° Southwest 404 465 35,000 -1,800 Descending Denver Center
10:33PM 40.6228 -103.3589 242° Southwest 422 486 32,300 -2,400 Descending Denver Center
10:34PM 40.5678 -103.4950 242° Southwest 418 481 30,100 -2,100 Descending Denver Center
10:35PM 40.5106 -103.6306 241° Southwest 422 486 28,000 -2,220 Descending Denver Center
10:36PM 40.4539 -103.7700 242° Southwest 428 493 25,600 -2,580 Descending Denver Center
10:37PM 40.3889 -103.9292 242° Southwest 432 497 22,800 -2,520 Descending Denver Center
10:38PM 40.3242 -104.0417 233° Southwest 377 434 20,500 -2,040 Descending Denver Center
10:39PM 40.2508 -104.1217 220° Southwest 335 386 18,700 -1,680 Descending Denver Center
10:40PM 40.1769 -104.2017 220° Southwest 322 371 17,100 -1,500 Descending Denver Center
10:41PM 40.1108 -104.2736 220° Southwest 307 353 15,700 -1,260 Descending Denver Center
10:42PM 40.0458 -104.3433 219° Southwest 302 348 14,600 -1,020 Descending Denver Center
10:42PM 40.0167 -104.3833 226° Southwest 301 346 14,200 -660 Descending Denver TRACON
10:43PM 39.9500 -104.4500 217° Southwest 290 334 13,700 -900 Descending Denver TRACON
10:44PM 39.9500 -104.5500 270° West 262 302 12,400 -1,200 Descending Denver TRACON
10:45PM 39.9500 -104.6500 270° West 256 295 11,400 -780 Descending Denver TRACON
10:46PM 39.9478 -104.7161 268° West 244 281 11,000 -540 Descending Denver Center
10:47PM 39.9464 -104.7933 269° West 218 251 10,500 -300 Descending Denver Center
10:48PM 39.9442 -104.8511 267° West 158 182 10,400 -840 Descending Denver Center
10:49PM 39.9194 -104.8864 228° Southwest 159 183 8,800 -1,500 Descending Denver Center
10:50PM 39.8742 -104.8664 161° South 175 201 7,400 -1,080 Descending Denver Center
10:51PM 39.8419 -104.8239 135° Southeast 154 177 6,700 -660 Descending Denver Center
10:52PM 39.8414 -104.7703 91° East 148 170 6,100 -720 Descending Denver Center
10:53PM 39.8406 -104.7206 91° East 133 153 5,300 -780 Descending Denver Center
10:55PM 39.8617 -104.6732 60° Northeast  Level Estimated
11:02PM 39.8617 -104.6732 142° Southeast  Level Estimated
11:03PM 39.8617 -104.6732 142° Southeast  Level Estimated
11:04PM 39.8617 -104.6732 142° Southeast  Level Estimated
11:05PM 39.8617 -104.6732 142° Southeast  Level Estimated